Aviation Digital Data Service (ADDS)

Output produced by METARs form (2340 UTC 25 February 2018)
found at http://www.aviationweather.gov/adds/metars/
 
MHSC 252258Z AUTO 06007KT 9999 OVC080 31/10 A2995 RMK AO2 SLP107 T03070101 $
MHLC 252300Z 01008KT 9999 FEW026 28/22 Q1014 A2995 NOSIG
TAF MHLC 252225Z 2600/2624 07010KT 9999 FEW028 TX31/2619Z TN18/2612Z 
     BECMG 2607/2609 00000KT 
     BECMG 2612/2614 20003KT
       
MHRO 252300Z 08016KT 9999 FEW025 27/22 Q1014 A2995 NOSIG
TAF MHRO 252225Z 2600/2624 09018KT 9999 FEW025 TX30/2619Z TN24/2612Z
       
MHLM 252300Z 02014KT 9999 FEW026 29/21 Q1013 A2992 NOSIG
TAF MHLM 252225Z 2600/2624 15005KT 8000 VCSH SCT028 SCT80 TX32/2620Z TN20/2612Z 
     BECMG 2602/2604 9999 NSW FEW025 
     BECMG 2610/2612 00000KT 
     BECMG 2619/2621 05008KT
       
MHTG 252300Z 09008KT 9999 FEW032TCU 24/10 Q1018 A3006 NOSIG
TAF MHTG 252225Z 2600/2624 07005KT 8000 VCSH SCT030 SCT080 TX30/2620Z TN13/2612Z 
     BECMG 2606/2608 35006KT 9999 NSW 
     BECMG 2612/2614 04005KT 8000 FEW008 FEW030 
     BECMG 2615/2617 9999 NSW
       
MHTE 252300Z 31002KT 9999 FEW026TCU 29/24 Q1013 TCU SW HZ